createdAt,value
2023-04-05T00:00:11.430Z,10.10
2023-04-05T00:01:15.325Z,11.10
2023-04-05T00:02:19.219Z,8.10
2023-04-05T00:03:21.832Z,8.30
2023-04-05T00:04:24.352Z,9.40
2023-04-05T00:05:33.179Z,8.30
2023-04-05T00:06:37.218Z,9.40
2023-04-05T00:07:40.109Z,5.40
2023-04-05T00:08:43.835Z,8.60
2023-04-05T00:09:47.073Z,6.50
2023-04-05T00:10:50.476Z,9.20
2023-04-05T00:11:52.888Z,8.60
2023-04-05T00:12:55.210Z,10.90
2023-04-05T00:13:59.722Z,10.10
2023-04-05T00:15:04.470Z,10.80
2023-04-05T00:16:08.654Z,11.50
2023-04-05T00:17:12.670Z,11.70
2023-04-05T00:18:22.778Z,13.80
2023-04-05T00:19:25.451Z,13.30
2023-04-05T00:20:28.690Z,13.90
2023-04-05T00:21:32.924Z,13.30
2023-04-05T00:22:36.729Z,10.20
2023-04-05T00:23:39.045Z,7.10
2023-04-05T00:24:42.789Z,11.20
2023-04-05T00:25:46.311Z,6.50
2023-04-05T00:26:48.808Z,7.20
2023-04-05T00:27:51.541Z,7.20
2023-04-05T00:28:54.640Z,7.70
2023-04-05T00:29:56.996Z,5.10
2023-04-05T00:30:59.523Z,6.50
2023-04-05T00:32:01.994Z,6.20
2023-04-05T00:33:06.346Z,5.40
2023-04-05T00:34:09.764Z,6.40
2023-04-05T00:35:12.362Z,5.90
2023-04-05T00:36:20.130Z,6.18
2023-04-05T00:37:22.623Z,5.90
2023-04-05T00:38:25.814Z,8.20
2023-04-05T00:39:28.200Z,5.80
2023-04-05T00:40:31.642Z,6.50
2023-04-05T00:41:35.805Z,6.10
2023-04-05T00:42:38.104Z,6.40
2023-04-05T00:43:41.476Z,8.40
2023-04-05T00:44:43.857Z,1.00
2023-04-05T00:45:47.031Z,6.30
2023-04-05T00:46:50.493Z,8.60
2023-04-05T00:47:53.249Z,7.36
2023-04-05T00:48:56.138Z,5.40
2023-04-05T00:50:00.482Z,7.30
2023-04-05T00:51:03.251Z,5.80
2023-04-05T00:52:06.733Z,6.00
2023-04-05T00:53:09.286Z,3.80
2023-04-05T00:54:12.489Z,4.60
2023-04-05T00:55:14.652Z,5.10
2023-04-05T00:56:17.066Z,6.40
2023-04-05T00:57:20.117Z,5.30
2023-04-05T00:58:23.394Z,2.70
2023-04-05T00:59:28.284Z,5.20
2023-04-05T01:00:31.514Z,5.50
2023-04-05T01:01:37.139Z,5.00
2023-04-05T01:02:49.621Z,4.40
2023-04-05T01:03:54.999Z,4.70
2023-04-05T01:05:01.452Z,5.10
2023-04-05T01:06:17.329Z,3.60
2023-04-05T01:07:27.727Z,1.60
2023-04-05T01:08:42.806Z,3.90
2023-04-05T01:09:56.937Z,4.40
2023-04-05T01:11:03.188Z,3.60
2023-04-05T01:12:08.775Z,3.60
2023-04-05T01:13:11.059Z,3.00
2023-04-05T01:14:13.989Z,3.70
2023-04-05T01:15:19.319Z,3.91
2023-04-05T01:16:22.006Z,4.00
2023-04-05T01:17:27.919Z,2.50
2023-04-05T01:18:30.862Z,3.00
2023-04-05T01:19:34.874Z,2.73
2023-04-05T01:20:42.425Z,2.30
2023-04-05T01:21:49.029Z,3.50
2023-04-05T01:23:13.290Z,4.40
2023-04-05T01:24:25.373Z,4.40
2023-04-05T01:25:37.191Z,1.70
2023-04-05T01:26:58.667Z,4.10
2023-04-05T01:28:10.480Z,3.30
2023-04-05T01:29:40.262Z,3.50
2023-04-05T01:30:45.821Z,4.40
2023-04-05T01:32:23.439Z,3.30
2023-04-05T01:33:36.056Z,3.00
2023-04-05T01:34:53.922Z,2.70
2023-04-05T01:36:02.852Z,2.50
2023-04-05T01:37:12.014Z,3.20
2023-04-05T01:38:17.887Z,3.70
2023-04-05T01:39:22.832Z,1.00
2023-04-05T01:40:25.407Z,2.00
2023-04-05T01:41:27.930Z,2.00
2023-04-05T01:42:30.870Z,3.00
2023-04-05T01:43:33.318Z,3.00
2023-04-05T01:44:37.395Z,2.90
2023-04-05T01:45:41.183Z,3.30
2023-04-05T01:46:45.746Z,2.40
2023-04-05T01:47:49.382Z,2.60
2023-04-05T01:48:53.497Z,3.30
2023-04-05T01:49:57.513Z,3.00
2023-04-05T01:51:01.508Z,3.00
2023-04-05T01:52:04.271Z,2.40
2023-04-05T01:53:08.000Z,3.70
2023-04-05T01:54:10.987Z,1.60
2023-04-05T01:55:13.132Z,2.90
2023-04-05T01:56:15.797Z,2.80
2023-04-05T01:57:18.322Z,3.20
2023-04-05T01:58:21.569Z,3.09
2023-04-05T01:59:24.110Z,2.91
2023-04-05T02:00:27.330Z,3.60
2023-04-05T02:01:29.904Z,2.50
2023-04-05T02:02:32.627Z,2.10
2023-04-05T02:03:35.351Z,3.00
2023-04-05T02:04:38.247Z,3.20
2023-04-05T02:05:41.663Z,7.50
2023-04-05T02:06:45.721Z,3.70
2023-04-05T02:07:48.258Z,3.00
2023-04-05T02:08:50.727Z,2.00
2023-04-05T02:09:52.926Z,3.00
2023-04-05T02:10:55.385Z,3.00
2023-04-05T02:11:57.692Z,4.10
2023-04-05T02:13:00.477Z,3.00
2023-04-05T02:14:03.645Z,3.40
2023-04-05T02:15:06.849Z,3.10
2023-04-05T02:16:09.868Z,3.30
2023-04-05T02:17:12.527Z,2.50
2023-04-05T02:18:15.173Z,4.20
2023-04-05T02:19:21.249Z,3.18
2023-04-05T02:20:25.295Z,3.30
2023-04-05T02:21:27.956Z,2.80
2023-04-05T02:22:30.187Z,3.40
2023-04-05T02:23:33.208Z,4.20
2023-04-05T02:24:36.155Z,3.18
2023-04-05T02:25:39.938Z,4.00
2023-04-05T02:26:43.234Z,3.40
2023-04-05T02:27:45.542Z,2.70
2023-04-05T02:28:49.866Z,3.60
2023-04-05T02:29:52.425Z,3.90
2023-04-05T02:30:55.525Z,3.09
2023-04-05T02:31:59.409Z,3.00
2023-04-05T02:33:03.074Z,3.00
2023-04-05T02:34:07.821Z,3.50
2023-04-05T02:35:10.132Z,3.00
2023-04-05T02:36:13.712Z,3.50
2023-04-05T02:37:16.279Z,3.50
2023-04-05T02:38:18.499Z,3.00
2023-04-05T02:39:20.909Z,2.00
2023-04-05T02:40:23.527Z,3.60
2023-04-05T02:41:26.568Z,2.60
2023-04-05T02:42:28.871Z,3.64
2023-04-05T02:43:31.753Z,10.20
2023-04-05T02:44:34.665Z,4.30
2023-04-05T02:45:37.167Z,2.50
2023-04-05T02:46:40.486Z,2.20
2023-04-05T02:47:42.997Z,3.27
2023-04-05T02:48:45.996Z,2.70
2023-04-05T02:49:50.145Z,2.80
2023-04-05T02:50:52.812Z,3.50
2023-04-05T02:51:55.661Z,3.00
2023-04-05T02:52:58.341Z,2.64
2023-04-05T02:54:02.366Z,2.60
2023-04-05T02:55:07.020Z,2.90
2023-04-05T02:56:12.147Z,3.50
2023-04-05T02:57:15.943Z,2.40
2023-04-05T02:58:20.314Z,2.00
2023-04-05T02:59:23.239Z,3.00
2023-04-05T03:00:25.859Z,2.90
2023-04-05T03:01:28.767Z,3.00
2023-04-05T03:02:32.170Z,3.60
2023-04-05T03:03:35.068Z,2.00
2023-04-05T03:04:40.447Z,2.00
2023-04-05T03:05:43.295Z,2.20
2023-04-05T03:06:48.160Z,3.20
2023-04-05T03:07:51.524Z,2.70
2023-04-05T03:08:58.749Z,1.50
2023-04-05T03:10:02.058Z,0.00
2023-04-05T03:11:06.690Z,2.20
2023-04-05T03:12:09.412Z,2.10
2023-04-05T03:13:17.211Z,2.70
2023-04-05T03:14:19.985Z,3.00
2023-04-05T03:15:22.684Z,3.00
2023-04-05T03:16:25.693Z,2.40
2023-04-05T03:17:28.080Z,3.00
2023-04-05T03:18:35.083Z,3.00
2023-04-05T03:19:40.642Z,2.20
2023-04-05T03:20:45.986Z,2.30
2023-04-05T03:21:50.559Z,2.70
2023-04-05T03:22:54.938Z,3.50
2023-04-05T03:23:59.903Z,3.20
2023-04-05T03:25:05.207Z,3.10
2023-04-05T03:26:10.357Z,1.00
2023-04-05T03:27:14.898Z,2.40
2023-04-05T03:28:34.166Z,2.80
2023-04-05T03:29:38.427Z,1.70
2023-04-05T03:30:42.701Z,2.80
2023-04-05T03:31:50.284Z,2.70
2023-04-05T03:32:56.439Z,3.10
2023-04-05T03:34:00.567Z,2.30
2023-04-05T03:35:05.774Z,3.30
2023-04-05T03:36:10.658Z,3.30
2023-04-05T03:37:15.004Z,2.00
2023-04-05T03:38:19.295Z,2.60
2023-04-05T03:39:36.415Z,1.30
2023-04-05T03:40:41.460Z,3.50
2023-04-05T03:41:45.204Z,2.80
2023-04-05T03:42:47.811Z,2.40
2023-04-05T03:43:50.231Z,1.00
2023-04-05T03:44:56.065Z,3.50
2023-04-05T03:45:58.343Z,2.40
2023-04-05T03:47:02.679Z,3.00
2023-04-05T03:48:06.250Z,3.20
2023-04-05T03:49:09.206Z,2.27
2023-04-05T03:50:12.765Z,3.50
2023-04-05T03:51:16.558Z,2.70
2023-04-05T03:52:18.974Z,3.90
2023-04-05T03:53:22.443Z,3.00
2023-04-05T03:54:27.130Z,2.80
2023-04-05T03:55:31.743Z,3.60
2023-04-05T03:56:36.157Z,2.00
2023-04-05T03:57:42.417Z,2.30
2023-04-05T03:58:46.708Z,3.20
2023-04-05T03:59:50.134Z,4.00
2023-04-05T04:00:55.345Z,1.80
2023-04-05T04:01:58.323Z,0.90
2023-04-05T04:03:01.461Z,3.30
2023-04-05T04:04:04.484Z,3.00
2023-04-05T04:05:07.437Z,2.60
2023-04-05T04:06:10.826Z,3.60
2023-04-05T04:07:14.120Z,4.40
2023-04-05T04:08:16.526Z,5.00
2023-04-05T04:09:18.851Z,6.30
2023-04-05T04:10:21.601Z,5.20
2023-04-05T04:11:26.683Z,3.50
2023-04-05T04:12:29.355Z,6.20
2023-04-05T04:13:33.532Z,7.80
2023-04-05T04:14:40.123Z,5.40
2023-04-05T04:15:53.278Z,7.80
2023-04-05T04:17:00.711Z,8.30
2023-04-05T04:18:07.732Z,6.10
2023-04-05T04:19:13.146Z,9.30
2023-04-05T04:20:23.861Z,8.30
2023-04-05T04:21:46.620Z,5.20
2023-04-05T04:22:59.695Z,6.30
2023-04-05T04:24:07.389Z,5.40
2023-04-05T04:25:28.439Z,6.90
2023-04-05T04:26:35.208Z,5.60
2023-04-05T04:27:42.020Z,7.80
2023-04-05T04:28:52.993Z,5.00
2023-04-05T04:30:16.014Z,5.70
2023-04-05T04:31:23.460Z,3.70
2023-04-05T04:34:06.467Z,3.00
2023-04-05T04:35:16.619Z,4.40
2023-04-05T04:36:22.682Z,1.30
2023-04-05T04:37:29.780Z,4.80
2023-04-05T04:38:44.616Z,4.60
2023-04-05T04:39:49.040Z,4.00
2023-04-05T04:41:11.998Z,6.40
2023-04-05T04:42:22.543Z,5.60
2023-04-05T04:43:44.115Z,3.20
2023-04-05T04:45:06.795Z,5.70
2023-04-05T04:46:30.184Z,7.90
2023-04-05T04:47:34.437Z,6.00
2023-04-05T04:49:01.292Z,3.80
2023-04-05T04:51:17.264Z,4.90
2023-04-05T04:52:20.788Z,4.60
2023-04-05T04:53:24.359Z,6.30
2023-04-05T04:54:28.886Z,5.50
2023-04-05T04:55:32.789Z,2.80
2023-04-05T04:56:35.236Z,6.50
2023-04-05T04:57:37.518Z,6.10
2023-04-05T04:58:40.168Z,5.70
2023-04-05T04:59:44.168Z,6.10
2023-04-05T05:00:47.670Z,4.00
2023-04-05T05:01:50.200Z,4.50
2023-04-05T05:02:52.909Z,4.10
2023-04-05T05:03:55.629Z,5.50
2023-04-05T05:05:05.004Z,5.90
2023-04-05T05:06:07.990Z,3.80
2023-04-05T05:07:12.201Z,6.30
2023-04-05T05:08:14.962Z,5.50
2023-04-05T05:09:17.754Z,4.80
2023-04-05T05:10:22.018Z,1.60
2023-04-05T05:11:24.359Z,5.00
2023-04-05T05:12:27.037Z,4.00
2023-04-05T05:13:29.484Z,4.60
2023-04-05T05:14:31.702Z,4.30
2023-04-05T05:15:33.945Z,4.60
2023-04-05T05:16:38.432Z,4.70
2023-04-05T05:17:41.018Z,4.70
2023-04-05T05:18:44.635Z,2.40
2023-04-05T05:19:46.944Z,3.70
2023-04-05T05:20:52.521Z,6.50
2023-04-05T05:23:01.113Z,5.20
2023-04-05T05:24:04.761Z,4.90
2023-04-05T05:25:09.432Z,5.80
2023-04-05T05:26:14.262Z,7.50
2023-04-05T05:27:16.805Z,9.00
2023-04-05T05:28:19.234Z,10.70
2023-04-05T05:29:21.692Z,6.70
2023-04-05T05:30:26.479Z,10.60
2023-04-05T05:31:29.029Z,8.70
2023-04-05T05:32:31.617Z,7.90
2023-04-05T05:33:33.922Z,7.20
2023-04-05T05:34:37.259Z,7.10
2023-04-05T05:35:40.484Z,8.40
2023-04-05T05:36:43.187Z,9.20
2023-04-05T05:37:46.395Z,8.80
2023-04-05T05:38:48.917Z,7.50
2023-04-05T05:39:51.421Z,8.70
2023-04-05T05:40:58.083Z,6.40
2023-04-05T05:42:00.547Z,4.00
2023-04-05T05:43:03.715Z,5.80
2023-04-05T05:44:07.707Z,6.50
2023-04-05T05:45:10.743Z,6.60
2023-04-05T05:46:13.831Z,7.30
2023-04-05T05:47:16.329Z,7.90
2023-04-05T05:48:18.797Z,6.90
2023-04-05T05:49:21.456Z,8.70
2023-04-05T05:50:24.650Z,6.36
2023-04-05T05:51:27.124Z,8.30
2023-04-05T05:52:29.878Z,5.80
2023-04-05T05:53:32.304Z,5.80
2023-04-05T05:54:34.661Z,7.70
2023-04-05T05:55:37.168Z,9.50
2023-04-05T05:56:39.644Z,6.10
2023-04-05T05:57:41.961Z,8.40
2023-04-05T05:58:44.201Z,8.80
2023-04-05T05:59:46.954Z,4.00
2023-04-05T06:00:51.229Z,8.45
2023-04-05T06:01:54.598Z,8.90
2023-04-05T06:02:58.620Z,7.40
2023-04-05T06:04:01.567Z,8.00
2023-04-05T06:05:04.937Z,7.90
2023-04-05T06:06:11.674Z,5.80
2023-04-05T06:07:14.213Z,8.10
2023-04-05T06:08:16.688Z,6.70
2023-04-05T06:09:19.059Z,6.20
2023-04-05T06:10:21.740Z,6.40
2023-04-05T06:11:24.778Z,6.30
2023-04-05T06:12:28.699Z,10.09
2023-04-05T06:13:31.659Z,11.40
2023-04-05T06:14:34.136Z,7.50
2023-04-05T06:15:36.304Z,7.80
2023-04-05T06:16:38.792Z,8.90
2023-04-05T06:17:42.090Z,9.60
2023-04-05T06:18:44.782Z,11.80
2023-04-05T06:19:47.563Z,13.20
2023-04-05T06:20:50.718Z,11.09
2023-04-05T06:21:54.936Z,8.18
2023-04-05T06:22:57.607Z,10.50
2023-04-05T06:23:59.980Z,9.40
2023-04-05T06:25:02.643Z,8.00
2023-04-05T06:26:05.004Z,4.80
2023-04-05T06:27:09.919Z,7.80
2023-04-05T06:28:12.219Z,5.80
2023-04-05T06:29:15.304Z,6.50
2023-04-05T06:30:18.049Z,7.30
2023-04-05T06:31:23.192Z,6.20
2023-04-05T06:32:25.559Z,8.20
2023-04-05T06:33:28.298Z,9.40
2023-04-05T06:34:31.932Z,9.60
2023-04-05T06:35:34.578Z,8.70
2023-04-05T06:36:37.478Z,10.30
2023-04-05T06:37:41.174Z,9.60
2023-04-05T06:38:43.799Z,9.30
2023-04-05T06:39:47.423Z,8.40
2023-04-05T06:40:51.506Z,6.50
2023-04-05T06:41:53.854Z,10.20
2023-04-05T06:42:58.467Z,8.10
2023-04-05T06:44:02.594Z,7.00
2023-04-05T06:45:05.767Z,6.80
2023-04-05T06:46:10.245Z,6.20
2023-04-05T06:47:14.747Z,6.30
2023-04-05T06:48:17.134Z,6.50
2023-04-05T06:49:21.486Z,7.10
2023-04-05T06:50:24.059Z,6.20
2023-04-05T06:51:28.150Z,6.60
2023-04-05T06:52:30.564Z,4.80
2023-04-05T06:53:32.836Z,5.20
2023-04-05T06:54:37.781Z,7.00
2023-04-05T06:55:42.944Z,5.10
2023-04-05T06:56:45.762Z,4.20
2023-04-05T06:57:47.948Z,5.82
2023-04-05T06:58:51.065Z,6.30
2023-04-05T06:59:54.311Z,5.30
2023-04-05T07:00:57.367Z,4.50
2023-04-05T07:01:59.818Z,5.40
2023-04-05T07:03:02.351Z,4.90
2023-04-05T07:04:05.767Z,5.20
2023-04-05T07:05:08.557Z,6.00
2023-04-05T07:06:12.137Z,4.40
2023-04-05T07:07:14.605Z,3.60
2023-04-05T07:08:18.255Z,6.50
2023-04-05T07:09:22.123Z,4.50
2023-04-05T07:10:24.940Z,6.50
2023-04-05T07:11:27.517Z,4.70
2023-04-05T07:12:30.483Z,5.50
2023-04-05T07:13:33.469Z,3.10
2023-04-05T07:14:37.160Z,4.00
2023-04-05T07:15:39.840Z,2.60
2023-04-05T07:16:42.425Z,5.73
2023-04-05T07:17:45.004Z,5.90
2023-04-05T07:18:47.247Z,6.20
2023-04-05T07:19:49.615Z,6.50
2023-04-05T07:20:53.751Z,6.30
2023-04-05T07:21:57.348Z,6.90
2023-04-05T07:22:59.918Z,6.50
2023-04-05T07:24:02.833Z,9.10
2023-04-05T07:25:07.965Z,8.73
2023-04-05T07:26:11.872Z,9.60
2023-04-05T07:27:15.246Z,7.70
2023-04-05T07:28:18.320Z,8.30
2023-04-05T07:29:21.129Z,6.64
2023-04-05T07:30:25.405Z,9.40
2023-04-05T07:31:27.605Z,8.60
2023-04-05T07:32:29.897Z,8.30
2023-04-05T07:33:32.387Z,10.20
2023-04-05T07:34:35.023Z,9.40
2023-04-05T07:35:39.581Z,8.73
2023-04-05T07:36:43.191Z,7.50
2023-04-05T07:37:45.926Z,6.80
2023-04-05T07:38:48.328Z,9.10
2023-04-05T07:39:51.058Z,8.10
2023-04-05T07:40:53.308Z,9.10
2023-04-05T07:41:56.330Z,4.30
2023-04-05T07:42:58.876Z,2.70
2023-04-05T07:44:01.296Z,5.20
2023-04-05T07:45:05.200Z,7.70
2023-04-05T07:46:08.152Z,6.20
2023-04-05T07:47:11.405Z,7.90
2023-04-05T07:48:13.775Z,8.40
2023-04-05T07:49:16.220Z,8.30
2023-04-05T07:50:19.286Z,9.50
2023-04-05T07:51:22.275Z,8.20
2023-04-05T07:52:25.032Z,8.10
2023-04-05T07:53:28.002Z,11.50
2023-04-05T07:54:36.419Z,7.91
2023-04-05T07:55:38.589Z,11.60
2023-04-05T07:56:42.117Z,9.30
2023-04-05T07:57:44.483Z,7.50
2023-04-05T07:58:47.616Z,11.60
2023-04-05T07:59:52.501Z,8.80
2023-04-05T08:01:00.669Z,10.70
2023-04-05T08:02:12.362Z,13.00
2023-04-05T08:03:08.666Z,8.60
2023-04-05T08:04:12.097Z,13.30
2023-04-05T08:05:14.502Z,11.40
2023-04-05T08:06:19.355Z,12.80
2023-04-05T08:07:22.837Z,12.00
2023-04-05T08:08:25.437Z,12.90
2023-04-05T08:09:27.688Z,13.50
2023-04-05T08:10:30.315Z,14.00
2023-04-05T08:11:32.749Z,14.80
2023-04-05T08:12:36.489Z,11.50
2023-04-05T08:13:42.321Z,12.80
2023-04-05T08:14:45.276Z,14.50
2023-04-05T08:15:48.317Z,15.18
2023-04-05T08:16:51.251Z,13.20
2023-04-05T08:17:54.502Z,12.30
2023-04-05T08:18:57.959Z,11.90
2023-04-05T08:20:00.154Z,10.50
2023-04-05T08:21:02.450Z,9.10
2023-04-05T08:22:04.735Z,11.20
2023-04-05T08:23:08.480Z,10.20
2023-04-05T08:24:11.364Z,11.60
2023-04-05T08:25:14.648Z,12.50
2023-04-05T08:26:17.369Z,10.30
2023-04-05T08:27:19.748Z,14.00
2023-04-05T08:28:23.446Z,10.30
2023-04-05T08:29:26.185Z,11.40
2023-04-05T08:30:29.188Z,12.45
2023-04-05T08:31:32.937Z,12.18
2023-04-05T08:32:35.570Z,10.00
2023-04-05T08:33:38.927Z,12.70
2023-04-05T08:34:41.210Z,12.30
2023-04-05T08:35:43.852Z,13.00
2023-04-05T08:36:48.734Z,12.73
2023-04-05T08:37:51.339Z,11.40
2023-04-05T08:38:53.596Z,11.80
2023-04-05T08:39:55.752Z,11.10
2023-04-05T08:41:16.600Z,13.40
2023-04-05T08:43:52.772Z,14.20
2023-04-05T08:44:57.782Z,12.60
2023-04-05T08:46:02.105Z,10.60
2023-04-05T08:47:04.756Z,11.50
2023-04-05T08:48:07.981Z,13.20
2023-04-05T08:49:11.146Z,15.60
2023-04-05T08:50:13.979Z,14.20
2023-04-05T08:51:21.628Z,12.50
2023-04-05T08:52:26.613Z,13.60
2023-04-05T08:53:29.409Z,7.70
2023-04-05T08:54:31.874Z,9.36
2023-04-05T08:55:34.757Z,12.10
2023-04-05T08:56:39.309Z,13.30
2023-04-05T08:57:45.892Z,12.60
2023-04-05T08:59:01.201Z,9.40
2023-04-05T09:00:07.644Z,9.90
2023-04-05T09:01:10.446Z,12.40
2023-04-05T09:02:18.615Z,11.10
2023-04-05T09:03:23.802Z,11.80
2023-04-05T09:04:30.985Z,13.10
2023-04-05T09:05:35.895Z,13.10
2023-04-05T09:06:38.964Z,14.40
2023-04-05T09:07:42.539Z,13.40
2023-04-05T09:08:45.759Z,15.00
2023-04-05T09:09:52.187Z,16.70
2023-04-05T09:10:55.361Z,16.50
2023-04-05T09:11:57.852Z,18.40
2023-04-05T09:13:01.825Z,16.20
2023-04-05T09:14:05.437Z,14.50
2023-04-05T09:15:08.488Z,14.10
2023-04-05T09:16:16.869Z,14.30
2023-04-05T09:17:20.037Z,15.90
2023-04-05T09:18:27.061Z,15.00
2023-04-05T09:19:27.163Z,17.20
2023-04-05T09:20:29.667Z,15.27
2023-04-05T09:21:37.136Z,15.20
2023-04-05T09:22:45.052Z,14.20
2023-04-05T09:23:54.087Z,10.60
2023-04-05T09:24:56.486Z,4.30
2023-04-05T09:25:59.877Z,15.18
2023-04-05T09:27:18.271Z,14.90
2023-04-05T09:28:22.574Z,15.40
2023-04-05T09:29:30.038Z,10.60
2023-04-05T09:30:34.408Z,15.10
2023-04-05T09:31:38.168Z,13.40
2023-04-05T09:32:47.470Z,12.20
2023-04-05T09:33:49.942Z,15.40
2023-04-05T09:34:54.087Z,13.60
2023-04-05T09:35:58.978Z,14.40
2023-04-05T09:37:01.896Z,12.90
2023-04-05T09:38:05.453Z,13.00
2023-04-05T09:39:10.135Z,14.90
2023-04-05T09:40:14.575Z,12.55
2023-04-05T09:41:17.136Z,9.60
2023-04-05T09:42:23.195Z,13.60
2023-04-05T09:43:43.000Z,9.20
2023-04-05T09:44:57.577Z,15.00
2023-04-05T09:48:51.879Z,13.90
2023-04-05T09:49:54.175Z,11.00
2023-04-05T09:52:25.324Z,13.20
2023-04-05T09:53:30.089Z,13.90
2023-04-05T09:54:36.540Z,11.30
2023-04-05T09:55:39.156Z,13.10
2023-04-05T09:56:47.131Z,13.80
2023-04-05T09:57:49.908Z,12.60
2023-04-05T09:58:52.410Z,12.30
2023-04-05T09:59:55.496Z,14.80
2023-04-05T10:01:03.334Z,15.00
2023-04-05T10:02:03.650Z,13.90
2023-04-05T10:03:06.226Z,16.40
2023-04-05T10:04:09.039Z,10.40
2023-04-05T10:05:15.373Z,13.36
2023-04-05T10:06:18.684Z,12.60
2023-04-05T10:07:21.420Z,13.40
2023-04-05T10:08:25.158Z,15.10
2023-04-05T10:09:27.817Z,11.50
2023-04-05T10:10:34.104Z,13.90
2023-04-05T10:11:39.000Z,13.40
2023-04-05T10:12:43.020Z,16.50
2023-04-05T10:13:48.627Z,14.70
2023-04-05T10:14:52.348Z,14.10
2023-04-05T10:15:58.346Z,14.60
2023-04-05T10:17:19.697Z,13.70
2023-04-05T10:18:27.077Z,13.40
2023-04-05T10:19:39.443Z,13.00
2023-04-05T10:20:47.774Z,14.50
2023-04-05T10:21:53.074Z,11.60
2023-04-05T10:23:02.246Z,13.30
2023-04-05T10:24:14.194Z,11.30
2023-04-05T10:25:29.757Z,7.00
2023-04-05T10:26:42.766Z,12.90
2023-04-05T10:27:58.026Z,11.00
2023-04-05T10:29:04.057Z,12.00
2023-04-05T10:30:08.968Z,10.90
2023-04-05T10:31:27.036Z,11.90
2023-04-05T10:32:26.955Z,10.50
2023-04-05T10:33:42.683Z,12.50
2023-04-05T10:34:57.826Z,11.80
2023-04-05T10:36:19.289Z,10.70
2023-04-05T10:37:43.204Z,10.89
2023-04-05T10:40:03.094Z,12.50
2023-04-05T10:41:15.442Z,11.80
2023-04-05T10:42:23.526Z,12.20
2023-04-05T10:43:27.280Z,10.20
2023-04-05T10:44:35.807Z,13.20
2023-04-05T10:45:40.602Z,10.80
2023-04-05T10:46:45.984Z,9.00
2023-04-05T10:47:56.765Z,9.70
2023-04-05T10:49:06.461Z,10.50
2023-04-05T10:50:13.160Z,12.10
2023-04-05T10:51:15.908Z,6.50
2023-04-05T10:52:19.328Z,12.55
2023-04-05T10:53:22.263Z,9.70
2023-04-05T10:54:25.347Z,12.10
2023-04-05T10:55:29.083Z,12.90
2023-04-05T10:56:33.002Z,12.50
2023-04-05T10:57:37.670Z,11.70
2023-04-05T10:58:41.730Z,13.10
2023-04-05T10:59:46.640Z,12.30
2023-04-05T11:00:50.679Z,12.90
2023-04-05T11:01:55.835Z,11.90
2023-04-05T11:02:59.800Z,12.00
2023-04-05T11:04:13.189Z,11.80
2023-04-05T11:05:36.959Z,13.50
2023-04-05T11:06:39.924Z,9.50
2023-04-05T11:07:44.739Z,13.20
2023-04-05T11:08:50.522Z,13.00
2023-04-05T11:10:04.102Z,11.10
2023-04-05T11:11:07.581Z,12.10
2023-04-05T11:12:11.030Z,12.90
2023-04-05T11:13:13.588Z,12.00
2023-04-05T11:14:25.533Z,8.80
2023-04-05T11:15:34.313Z,6.00
2023-04-05T11:16:41.152Z,12.30
2023-04-05T11:17:43.685Z,13.70
2023-04-05T11:18:47.902Z,15.20
2023-04-05T11:19:53.575Z,13.20
2023-04-05T11:21:08.110Z,9.30
2023-04-05T11:22:12.716Z,13.80
2023-04-05T11:23:17.908Z,12.30
2023-04-05T11:24:20.447Z,14.40
2023-04-05T11:25:24.791Z,13.80
2023-04-05T11:26:42.064Z,15.10
2023-04-05T11:27:48.420Z,13.90
2023-04-05T11:28:55.704Z,15.30
2023-04-05T11:30:00.098Z,10.40
2023-04-05T11:32:45.725Z,15.00
2023-04-05T11:33:56.281Z,13.30
2023-04-05T11:35:03.070Z,13.80
2023-04-05T11:36:06.575Z,17.60
2023-04-05T11:37:10.662Z,15.30
2023-04-05T11:38:23.165Z,13.80
2023-04-05T11:39:26.783Z,16.40
2023-04-05T11:40:38.123Z,13.80
2023-04-05T11:41:40.776Z,15.40
2023-04-05T11:42:43.712Z,17.60
2023-04-05T11:43:47.278Z,16.70
2023-04-05T11:44:52.007Z,11.30
2023-04-05T11:45:54.996Z,20.50
2023-04-05T11:46:57.731Z,20.50
2023-04-05T11:48:02.706Z,24.50
2023-04-05T11:49:05.302Z,24.20
2023-04-05T11:50:09.621Z,23.91
2023-04-05T11:51:12.765Z,20.00
2023-04-05T11:52:18.203Z,21.70
2023-04-05T11:53:21.699Z,19.70
2023-04-05T11:54:34.021Z,18.30
2023-04-05T11:55:37.611Z,19.10
2023-04-05T11:56:42.393Z,16.00
2023-04-05T11:57:46.571Z,15.50
2023-04-05T11:58:48.875Z,16.40
2023-04-05T11:59:53.511Z,15.10
2023-04-05T12:01:01.667Z,17.30
2023-04-05T12:02:07.602Z,17.40
2023-04-05T12:04:26.823Z,15.40
2023-04-05T12:05:50.134Z,18.45
2023-04-05T12:07:10.424Z,15.10
2023-04-05T12:08:13.013Z,15.10
2023-04-05T12:09:16.472Z,16.90
2023-04-05T12:10:18.893Z,16.00
2023-04-05T12:11:30.675Z,15.00
2023-04-05T12:13:45.903Z,16.00
2023-04-05T12:14:48.655Z,16.70
2023-04-05T12:15:51.141Z,17.18
2023-04-05T12:16:53.953Z,18.60
2023-04-05T12:17:56.278Z,16.10
2023-04-05T12:19:00.288Z,16.10
2023-04-05T12:20:03.578Z,14.20
2023-04-05T12:21:09.653Z,16.00
2023-04-05T12:22:13.688Z,20.20
2023-04-05T12:23:18.103Z,19.60
2023-04-05T12:24:21.245Z,15.70
2023-04-05T12:25:24.956Z,21.70
2023-04-05T12:26:30.067Z,15.10
2023-04-05T12:27:33.067Z,17.90
2023-04-05T12:28:55.537Z,17.40
2023-04-05T12:30:10.594Z,11.40
2023-04-05T12:31:13.661Z,17.00
2023-04-05T12:32:15.999Z,16.30
2023-04-05T12:33:33.434Z,12.60
2023-04-05T12:34:37.416Z,16.60
2023-04-05T12:35:39.892Z,17.40
2023-04-05T12:36:46.127Z,16.36
2023-04-05T12:37:50.839Z,14.70
2023-04-05T12:38:55.932Z,16.00
2023-04-05T12:40:03.486Z,15.40
2023-04-05T12:41:06.849Z,14.80
2023-04-05T12:42:12.979Z,12.40
2023-04-05T12:43:17.270Z,10.30
2023-04-05T12:44:30.486Z,12.40
2023-04-05T12:45:41.554Z,12.30
2023-04-05T12:46:46.887Z,14.10
2023-04-05T12:47:52.435Z,14.60
2023-04-05T12:48:55.097Z,14.80
2023-04-05T12:49:57.794Z,10.30
2023-04-05T12:51:04.503Z,14.55
2023-04-05T12:52:07.818Z,14.60
2023-04-05T12:53:23.224Z,13.60
2023-04-05T12:54:27.106Z,11.90
2023-04-05T12:55:31.293Z,13.70
2023-04-05T12:56:33.625Z,15.80
2023-04-05T12:57:36.173Z,15.50
2023-04-05T12:58:39.651Z,15.00
2023-04-05T12:59:42.527Z,13.00
2023-04-05T13:00:47.145Z,14.40
2023-04-05T13:01:50.573Z,14.80
2023-04-05T13:02:54.955Z,13.30
2023-04-05T13:04:14.644Z,12.80
2023-04-05T13:05:08.316Z,14.30
2023-04-05T13:06:11.077Z,15.00
2023-04-05T13:07:13.218Z,13.10
2023-04-05T13:08:17.854Z,10.60
2023-04-05T13:09:22.067Z,13.10
2023-04-05T13:10:26.839Z,13.10
2023-04-05T13:11:29.174Z,14.30
2023-04-05T13:12:31.413Z,14.80
2023-04-05T13:13:33.847Z,16.30
2023-04-05T13:14:36.202Z,16.70
2023-04-05T13:15:38.649Z,17.10
2023-04-05T13:16:42.175Z,14.90
2023-04-05T13:17:47.874Z,13.70
2023-04-05T13:18:50.873Z,14.80
2023-04-05T13:19:52.962Z,14.00
2023-04-05T13:20:55.287Z,8.30
2023-04-05T13:21:58.253Z,8.90
2023-04-05T13:23:00.627Z,12.36
2023-04-05T13:24:02.960Z,12.50
2023-04-05T13:25:06.198Z,13.80
2023-04-05T13:26:09.007Z,14.40
2023-04-05T13:27:11.356Z,14.00
2023-04-05T13:28:13.621Z,14.30
2023-04-05T13:29:15.813Z,14.20
2023-04-05T13:30:18.463Z,11.50
2023-04-05T13:31:20.867Z,15.30
2023-04-05T13:32:24.199Z,15.20
2023-04-05T13:33:27.615Z,8.00
2023-04-05T13:34:31.273Z,13.50
2023-04-05T13:35:33.690Z,12.90
2023-04-05T13:36:36.844Z,13.18
2023-04-05T13:37:39.093Z,13.60
2023-04-05T13:38:41.974Z,8.30
2023-04-05T13:39:45.043Z,14.30
2023-04-05T13:40:48.018Z,14.20
2023-04-05T13:41:50.776Z,15.50
2023-04-05T13:42:53.064Z,13.82
2023-04-05T13:43:55.442Z,14.50
2023-04-05T13:44:57.664Z,13.60
2023-04-05T13:45:59.744Z,13.40
2023-04-05T13:47:02.502Z,12.70
2023-04-05T13:48:04.963Z,16.00
2023-04-05T13:49:07.239Z,13.90
2023-04-05T13:50:10.534Z,13.70
2023-04-05T13:51:12.939Z,14.64
2023-04-05T13:52:15.524Z,10.70
2023-04-05T13:53:18.321Z,14.70
2023-04-05T13:54:20.878Z,11.64
2023-04-05T13:55:23.177Z,13.50
2023-04-05T13:56:26.728Z,16.10
2023-04-05T13:57:29.428Z,7.00
2023-04-05T13:58:32.286Z,13.73
2023-04-05T13:59:35.072Z,14.60
2023-04-05T14:00:39.640Z,13.55
2023-04-05T14:01:48.979Z,13.10
2023-04-05T14:02:52.167Z,13.00
2023-04-05T14:03:55.683Z,12.40
2023-04-05T14:04:59.257Z,11.70
2023-04-05T14:06:01.686Z,13.80
2023-04-05T14:07:04.308Z,13.40
2023-04-05T14:08:06.539Z,9.20
2023-04-05T14:09:10.804Z,15.20
2023-04-05T14:10:14.919Z,13.00
2023-04-05T14:11:17.204Z,14.80
2023-04-05T14:12:19.347Z,12.30
2023-04-05T14:13:24.936Z,13.70
2023-04-05T14:14:28.242Z,11.70
2023-04-05T14:15:32.733Z,13.10
2023-04-05T14:16:37.607Z,14.60
2023-04-05T14:17:41.287Z,12.90
2023-04-05T14:18:44.080Z,12.50
2023-04-05T14:19:46.931Z,12.91
2023-04-05T14:20:49.833Z,12.00
2023-04-05T14:21:53.058Z,16.18
2023-04-05T14:22:56.057Z,14.00
2023-04-05T14:23:58.981Z,14.70
2023-04-05T14:25:01.766Z,13.27